createdAt,value
2023-04-15T00:01:13.379Z,4.85
2023-04-15T00:03:40.339Z,3.92
2023-04-15T00:06:07.702Z,4.50
2023-04-15T00:08:34.406Z,4.90
2023-04-15T00:11:03.219Z,5.32
2023-04-15T00:13:29.938Z,6.30
2023-04-15T00:15:56.555Z,5.93
2023-04-15T00:18:23.856Z,6.03
2023-04-15T00:20:50.369Z,6.20
2023-04-15T00:23:16.967Z,5.63
2023-04-15T00:25:45.438Z,5.40
2023-04-15T00:28:12.489Z,7.45
2023-04-15T00:30:39.312Z,5.68
2023-04-15T00:33:05.975Z,6.18
2023-04-15T00:35:36.744Z,5.05
2023-04-15T00:38:04.742Z,5.30
2023-04-15T00:40:31.314Z,7.60
2023-04-15T00:42:57.961Z,10.02
2023-04-15T00:45:24.713Z,6.78
2023-04-15T00:47:54.220Z,6.70
2023-04-15T00:50:20.812Z,6.68
2023-04-15T00:52:48.264Z,6.45
2023-04-15T00:55:15.281Z,8.45
2023-04-15T00:57:42.609Z,8.27
2023-04-15T01:00:11.368Z,6.95
2023-04-15T01:02:38.355Z,7.68
2023-04-15T01:05:05.172Z,8.65
2023-04-15T01:07:32.212Z,8.63
2023-04-15T01:09:58.738Z,9.00
2023-04-15T01:12:26.877Z,7.22
2023-04-15T01:14:53.807Z,7.65
2023-04-15T01:17:21.542Z,9.52
2023-04-15T01:19:48.398Z,8.63
2023-04-15T01:22:15.006Z,8.90
2023-04-15T01:24:41.953Z,7.65
2023-04-15T01:27:09.079Z,6.55
2023-04-15T01:29:38.419Z,7.82
2023-04-15T01:32:05.935Z,8.10
2023-04-15T01:34:35.019Z,6.72
2023-04-15T01:37:02.254Z,10.93
2023-04-15T01:39:28.824Z,10.45
2023-04-15T01:41:57.436Z,5.50
2023-04-15T01:44:25.873Z,5.88
2023-04-15T01:46:52.612Z,7.47
2023-04-15T01:49:20.119Z,6.35
2023-04-15T01:51:46.744Z,7.03
2023-04-15T01:54:13.375Z,6.88
2023-04-15T01:56:40.048Z,6.13
2023-04-15T01:59:06.694Z,6.43
2023-04-15T02:01:33.997Z,7.60
2023-04-15T02:04:01.146Z,6.28
2023-04-15T02:06:28.324Z,6.18
2023-04-15T02:08:55.458Z,6.63
2023-04-15T02:11:23.177Z,7.25
2023-04-15T02:13:49.843Z,8.23
2023-04-15T02:16:18.721Z,8.25
2023-04-15T02:18:45.902Z,9.27
2023-04-15T02:21:12.784Z,8.55
2023-04-15T02:23:39.297Z,9.20
2023-04-15T02:26:05.870Z,8.75
2023-04-15T02:28:32.528Z,9.98
2023-04-15T02:30:59.909Z,8.00
2023-04-15T02:33:26.533Z,10.30
2023-04-15T02:35:53.327Z,10.75
2023-04-15T02:38:20.041Z,8.85
2023-04-15T02:40:49.712Z,8.68
2023-04-15T02:43:17.462Z,11.15
2023-04-15T02:45:44.222Z,10.02
2023-04-15T02:48:11.150Z,8.05
2023-04-15T02:50:41.098Z,10.73
2023-04-15T02:53:09.953Z,8.40
2023-04-15T02:55:36.613Z,8.65
2023-04-15T02:58:03.336Z,10.55
2023-04-15T03:00:29.961Z,8.35
2023-04-15T03:03:03.440Z,5.47
2023-04-15T03:05:30.686Z,6.35
2023-04-15T03:07:57.416Z,8.48
2023-04-15T03:10:24.067Z,7.53
2023-04-15T03:12:50.824Z,8.52
2023-04-15T03:15:19.613Z,5.72
2023-04-15T03:17:49.777Z,7.57
2023-04-15T03:20:17.169Z,7.18
2023-04-15T03:22:43.915Z,8.07
2023-04-15T03:25:10.798Z,8.05
2023-04-15T03:27:38.564Z,6.82
2023-04-15T03:30:06.763Z,8.27
2023-04-15T03:32:36.480Z,5.93
2023-04-15T03:35:03.131Z,7.15
2023-04-15T03:37:29.688Z,7.15
2023-04-15T03:39:56.559Z,7.13
2023-04-15T03:42:24.320Z,8.40
2023-04-15T03:44:50.918Z,8.52
2023-04-15T03:47:17.435Z,9.77
2023-04-15T03:49:43.979Z,7.90
2023-04-15T03:52:10.493Z,8.15
2023-04-15T03:54:37.104Z,9.15
2023-04-15T03:57:03.659Z,9.88
2023-04-15T03:59:30.549Z,7.75
2023-04-15T04:01:57.372Z,7.00
2023-04-15T04:04:24.231Z,9.77
2023-04-15T04:06:53.026Z,8.82
2023-04-15T04:09:19.675Z,9.27
2023-04-15T04:11:46.214Z,10.10
2023-04-15T04:14:12.779Z,8.85
2023-04-15T04:16:39.481Z,10.75
2023-04-15T04:19:06.370Z,10.90
2023-04-15T04:21:34.244Z,12.98
2023-04-15T04:24:00.826Z,13.65
2023-04-15T04:26:27.543Z,22.08
2023-04-15T04:28:54.056Z,18.77
2023-04-15T04:31:20.736Z,15.30
2023-04-15T04:33:47.433Z,30.15
2023-04-15T04:36:13.972Z,28.58
2023-04-15T04:38:40.661Z,33.03
2023-04-15T04:41:07.592Z,26.70
2023-04-15T04:43:34.116Z,32.10
2023-04-15T04:46:00.738Z,32.70
2023-04-15T04:48:27.419Z,21.98
2023-04-15T04:50:54.107Z,29.10
2023-04-15T04:53:20.725Z,25.33
2023-04-15T04:55:47.299Z,33.97
2023-04-15T04:58:13.913Z,20.80
2023-04-15T05:00:41.055Z,19.35
2023-04-15T05:03:07.755Z,22.80
2023-04-15T05:05:35.906Z,28.35
2023-04-15T05:08:02.695Z,29.88
2023-04-15T05:10:30.486Z,15.95
2023-04-15T05:12:57.472Z,18.65
2023-04-15T05:15:24.079Z,14.75
2023-04-15T05:17:50.764Z,29.23
2023-04-15T05:20:20.106Z,31.77
2023-04-15T05:22:46.818Z,19.98
2023-04-15T05:25:14.009Z,13.52
2023-04-15T05:27:40.586Z,15.02
2023-04-15T05:30:07.539Z,11.50
2023-04-15T05:32:34.125Z,9.30
2023-04-15T05:35:00.744Z,10.98
2023-04-15T05:37:27.255Z,9.65
2023-04-15T05:39:53.808Z,5.47
2023-04-15T05:42:20.438Z,7.57
2023-04-15T05:44:47.065Z,6.93
2023-04-15T05:47:13.605Z,6.30
2023-04-15T05:49:40.161Z,5.68
2023-04-15T05:52:07.011Z,6.50
2023-04-15T05:54:33.733Z,4.90
2023-04-15T05:57:00.967Z,7.95
2023-04-15T05:59:28.462Z,3.38
2023-04-15T06:01:55.284Z,5.22
2023-04-15T06:04:22.147Z,4.20
2023-04-15T06:06:48.734Z,2.50
2023-04-15T06:09:15.349Z,3.10
2023-04-15T06:11:42.074Z,3.53
2023-04-15T06:14:08.651Z,2.65
2023-04-15T06:16:38.828Z,3.40
2023-04-15T06:19:06.231Z,1.73
2023-04-15T06:21:32.968Z,1.77
2023-04-15T06:24:01.633Z,2.22
2023-04-15T06:26:28.316Z,2.00
2023-04-15T06:28:54.896Z,1.25
2023-04-15T06:31:21.670Z,1.77
2023-04-15T06:33:48.334Z,1.45
2023-04-15T06:36:15.472Z,1.23
2023-04-15T06:38:42.059Z,1.35
2023-04-15T06:41:08.663Z,1.30
2023-04-15T06:43:35.461Z,1.48
2023-04-15T06:46:02.445Z,0.93
2023-04-15T06:48:29.040Z,1.15
2023-04-15T06:50:55.564Z,1.20
2023-04-15T06:53:23.021Z,1.20
2023-04-15T06:55:49.563Z,1.40
2023-04-15T06:58:16.340Z,0.80
2023-04-15T07:00:43.093Z,1.52
2023-04-15T07:03:11.279Z,0.93
2023-04-15T07:05:38.431Z,0.90
2023-04-15T07:08:05.244Z,0.63
2023-04-15T07:10:31.788Z,0.75
2023-04-15T07:12:58.315Z,0.90
2023-04-15T07:15:25.107Z,0.77
2023-04-15T07:17:51.742Z,0.60
2023-04-15T07:20:18.660Z,0.70
2023-04-15T07:22:45.166Z,1.13
2023-04-15T07:25:12.085Z,0.70
2023-04-15T07:27:38.690Z,0.65
2023-04-15T07:30:05.643Z,0.90
2023-04-15T07:32:32.252Z,3.25
2023-04-15T07:34:58.969Z,2.90
2023-04-15T07:37:25.501Z,2.97
2023-04-15T07:39:52.928Z,2.95
2023-04-15T07:42:19.717Z,2.63
2023-04-15T07:44:46.648Z,2.67
2023-04-15T07:47:13.175Z,3.00
2023-04-15T07:49:39.758Z,2.40
2023-04-15T07:52:09.118Z,2.28
2023-04-15T07:54:35.799Z,2.15
2023-04-15T07:57:03.191Z,2.10
2023-04-15T07:59:31.087Z,2.53
2023-04-15T08:01:57.720Z,2.75
2023-04-15T08:04:24.657Z,2.00
2023-04-15T08:06:52.622Z,3.00
2023-04-15T08:09:19.492Z,2.65
2023-04-15T08:11:46.875Z,2.70
2023-04-15T08:14:13.379Z,2.60
2023-04-15T08:16:39.949Z,2.67
2023-04-15T08:19:06.565Z,2.72
2023-04-15T08:21:33.209Z,3.67
2023-04-15T08:24:00.285Z,3.88
2023-04-15T08:26:26.868Z,2.67
2023-04-15T08:28:54.830Z,3.35
2023-04-15T08:31:22.037Z,3.40
2023-04-15T08:33:48.872Z,3.20
2023-04-15T08:36:15.494Z,3.78
2023-04-15T08:38:42.126Z,2.97
2023-04-15T08:41:22.514Z,2.65
2023-04-15T08:44:07.443Z,2.43
2023-04-15T08:46:37.036Z,2.40
2023-04-15T08:49:04.553Z,2.47
2023-04-15T08:51:32.014Z,2.88
2023-04-15T08:53:58.966Z,2.20
2023-04-15T08:56:29.211Z,1.92
2023-04-15T08:58:55.943Z,2.40
2023-04-15T09:01:23.135Z,1.92
2023-04-15T09:03:50.899Z,2.67
2023-04-15T09:06:17.791Z,1.77
2023-04-15T09:08:44.926Z,2.00
2023-04-15T09:11:11.489Z,1.80
2023-04-15T09:13:38.285Z,2.03
2023-04-15T09:16:08.654Z,2.08
2023-04-15T09:18:36.122Z,1.83
2023-04-15T09:21:11.241Z,1.88
2023-04-15T09:23:38.435Z,1.65
2023-04-15T09:26:05.575Z,1.98
2023-04-15T09:28:32.426Z,2.10
2023-04-15T09:30:59.965Z,2.55
2023-04-15T09:33:29.489Z,2.10
2023-04-15T09:35:57.159Z,2.33
2023-04-15T09:38:23.713Z,1.98
2023-04-15T09:40:50.373Z,2.88
2023-04-15T09:43:17.583Z,2.78
2023-04-15T09:45:48.889Z,2.97
2023-04-15T09:48:18.765Z,2.63
2023-04-15T09:50:45.446Z,1.98
2023-04-15T09:53:15.945Z,2.58
2023-04-15T09:55:46.193Z,2.45
2023-04-15T09:58:19.753Z,2.37
2023-04-15T10:00:47.862Z,2.92
2023-04-15T10:03:16.036Z,2.35
2023-04-15T10:05:42.714Z,2.30
2023-04-15T10:08:09.451Z,2.15
2023-04-15T10:10:36.043Z,2.50
2023-04-15T10:13:02.709Z,2.30
2023-04-15T10:15:29.900Z,2.63
2023-04-15T10:17:57.633Z,2.05
2023-04-15T10:20:24.511Z,3.10
2023-04-15T10:22:51.430Z,2.90
2023-04-15T10:25:18.608Z,2.67
2023-04-15T10:27:45.231Z,1.80
2023-04-15T10:30:12.313Z,2.47
2023-04-15T10:32:39.182Z,2.60
2023-04-15T10:35:06.327Z,2.67
2023-04-15T10:37:34.381Z,2.53
2023-04-15T10:40:01.020Z,2.45
2023-04-15T10:42:33.937Z,2.55
2023-04-15T10:45:00.508Z,2.00
2023-04-15T10:47:27.147Z,1.90
2023-04-15T10:50:01.435Z,2.10
2023-04-15T10:52:28.872Z,2.40
2023-04-15T10:55:13.407Z,2.17
2023-04-15T10:57:41.053Z,2.17
2023-04-15T11:00:07.639Z,1.67
2023-04-15T11:02:41.291Z,1.80
2023-04-15T11:05:08.731Z,1.75
2023-04-15T11:07:44.783Z,1.67
2023-04-15T11:10:14.427Z,1.92
2023-04-15T11:12:41.968Z,2.28
2023-04-15T11:15:27.255Z,1.88
2023-04-15T11:17:54.136Z,1.80
2023-04-15T11:20:21.256Z,1.77
2023-04-15T11:22:52.545Z,1.92
2023-04-15T11:25:35.707Z,1.85
2023-04-15T11:28:02.862Z,1.70
2023-04-15T11:33:14.730Z,2.20
2023-04-15T11:35:42.467Z,1.27
2023-04-15T11:38:14.506Z,3.03
2023-04-15T11:40:45.310Z,2.83
2023-04-15T11:43:21.784Z,1.98
2023-04-15T11:45:55.954Z,2.55
2023-04-15T11:48:30.765Z,1.73
2023-04-15T11:51:01.909Z,1.50
2023-04-15T11:53:46.469Z,1.65
2023-04-15T11:56:23.938Z,2.03
2023-04-15T11:58:57.229Z,1.88
2023-04-15T12:01:39.970Z,1.33
2023-04-15T12:04:14.809Z,2.05
2023-04-15T12:06:41.667Z,1.90
2023-04-15T12:09:12.461Z,1.50
2023-04-15T12:11:47.509Z,1.67
2023-04-15T12:14:30.304Z,1.95
2023-04-15T12:17:01.563Z,1.75
2023-04-15T12:19:42.078Z,1.85
2023-04-15T12:22:20.857Z,2.33
2023-04-15T12:24:48.965Z,2.15
2023-04-15T12:27:17.419Z,1.92
2023-04-15T12:29:44.443Z,1.95
2023-04-15T12:32:13.185Z,2.75
2023-04-15T12:34:41.929Z,1.48
2023-04-15T12:37:10.893Z,1.80
2023-04-15T12:39:39.581Z,1.63
2023-04-15T12:42:06.966Z,2.40
2023-04-15T12:44:34.379Z,2.70
2023-04-15T12:47:01.374Z,2.08
2023-04-15T12:49:28.222Z,1.77
2023-04-15T12:51:57.044Z,2.00
2023-04-15T12:54:23.980Z,2.22
2023-04-15T12:56:51.334Z,2.03
2023-04-15T12:59:18.795Z,1.63
2023-04-15T13:01:46.669Z,2.10
2023-04-15T13:04:14.414Z,1.75
2023-04-15T13:06:41.197Z,1.95
2023-04-15T13:09:07.877Z,1.50
2023-04-15T13:11:34.606Z,2.25
2023-04-15T13:14:04.071Z,1.70
2023-04-15T13:16:32.114Z,2.10
2023-04-15T13:19:04.242Z,1.80
2023-04-15T13:21:35.079Z,2.33
2023-04-15T13:24:02.381Z,2.90
2023-04-15T13:26:29.306Z,2.17
2023-04-15T13:28:56.356Z,1.73
2023-04-15T13:31:23.022Z,2.47
2023-04-15T13:33:49.766Z,2.15
2023-04-15T13:36:16.736Z,1.70
2023-04-15T13:38:43.426Z,1.70
2023-04-15T13:41:10.096Z,1.92
2023-04-15T13:43:39.144Z,1.60
2023-04-15T13:46:06.278Z,2.17
2023-04-15T13:48:33.097Z,1.83
2023-04-15T13:50:59.787Z,1.83
2023-04-15T13:53:33.998Z,2.05
2023-04-15T13:56:09.343Z,1.92
2023-04-15T13:58:37.759Z,1.67
2023-04-15T14:01:07.051Z,1.98
2023-04-15T14:03:37.654Z,2.20
2023-04-15T14:06:07.927Z,1.35
2023-04-15T14:08:36.010Z,1.50
2023-04-15T14:11:02.907Z,1.65
2023-04-15T14:13:32.758Z,1.60
2023-04-15T14:15:59.635Z,1.70
2023-04-15T14:18:26.533Z,1.30
2023-04-15T14:20:53.689Z,2.08
2023-04-15T14:23:20.461Z,1.88
2023-04-15T14:25:48.286Z,2.10
2023-04-15T14:28:15.486Z,1.45
2023-04-15T14:30:42.513Z,1.65
2023-04-15T14:33:09.388Z,1.98
2023-04-15T14:35:38.251Z,2.55
2023-04-15T14:38:06.232Z,1.77
2023-04-15T14:40:33.920Z,1.85
2023-04-15T14:43:02.539Z,1.45
2023-04-15T14:45:31.771Z,1.77
2023-04-15T14:47:59.605Z,1.60
2023-04-15T14:50:26.493Z,1.48
2023-04-15T14:52:53.204Z,1.42
2023-04-15T14:55:20.465Z,1.73
2023-04-15T14:57:47.408Z,1.30
2023-04-15T15:00:16.050Z,2.03
2023-04-15T15:02:43.187Z,2.30
2023-04-15T15:05:10.959Z,2.30
2023-04-15T15:07:39.498Z,1.42
2023-04-15T15:10:07.396Z,1.23
2023-04-15T15:12:34.458Z,1.83
2023-04-15T15:15:04.988Z,1.83
2023-04-15T15:17:36.549Z,1.75
2023-04-15T15:20:04.136Z,2.38
2023-04-15T15:22:30.972Z,1.73
2023-04-15T15:24:59.757Z,2.00
2023-04-15T15:27:26.645Z,1.55
2023-04-15T15:29:53.452Z,1.90
2023-04-15T15:32:20.405Z,2.65
2023-04-15T15:34:47.076Z,1.95
2023-04-15T15:37:13.819Z,1.55
2023-04-15T15:39:40.758Z,1.90
2023-04-15T15:42:08.091Z,1.67
2023-04-15T15:44:38.403Z,1.70
2023-04-15T15:47:08.421Z,1.70
2023-04-15T15:49:35.235Z,1.98
2023-04-15T15:52:02.084Z,2.25
2023-04-15T15:54:29.291Z,2.25
2023-04-15T15:56:57.595Z,2.15
2023-04-15T15:59:25.914Z,2.38
2023-04-15T16:01:53.001Z,2.30
2023-04-15T16:04:19.998Z,2.20
2023-04-15T16:06:47.041Z,2.00
2023-04-15T16:09:13.756Z,2.08
2023-04-15T16:11:41.374Z,1.70
2023-04-15T16:14:13.075Z,2.33
2023-04-15T16:16:39.838Z,2.40
2023-04-15T16:19:06.769Z,2.30
2023-04-15T16:21:34.553Z,2.53
2023-04-15T16:24:02.235Z,2.10
2023-04-15T16:26:29.047Z,2.15
2023-04-15T16:28:55.797Z,2.28
2023-04-15T16:31:22.624Z,1.98
2023-04-15T16:33:49.480Z,2.50
2023-04-15T16:36:16.147Z,2.20
2023-04-15T16:38:45.300Z,2.20
2023-04-15T16:41:11.956Z,2.28
2023-04-15T16:43:38.669Z,2.42
2023-04-15T16:46:05.513Z,2.20
2023-04-15T16:48:32.719Z,2.30
2023-04-15T16:50:59.481Z,2.30
2023-04-15T16:53:26.303Z,2.40
2023-04-15T16:55:52.995Z,2.45
2023-04-15T16:58:20.264Z,2.55
2023-04-15T17:00:47.199Z,3.47
2023-04-15T17:03:14.158Z,2.92
2023-04-15T17:05:42.385Z,2.65
2023-04-15T17:08:09.254Z,2.83
2023-04-15T17:10:36.352Z,2.38
2023-04-15T17:13:03.116Z,2.10
2023-04-15T17:15:31.434Z,2.60
2023-04-15T17:18:00.176Z,2.95
2023-04-15T17:20:26.892Z,2.75
2023-04-15T17:22:53.783Z,2.50
2023-04-15T17:25:20.909Z,2.40
2023-04-15T17:27:47.673Z,2.40
2023-04-15T17:30:14.382Z,2.53
2023-04-15T17:32:41.186Z,2.47
2023-04-15T17:35:08.391Z,2.95
2023-04-15T17:37:35.273Z,3.10
2023-04-15T17:40:02.573Z,3.92
2023-04-15T17:42:29.318Z,3.53
2023-04-15T17:44:56.061Z,3.53
2023-04-15T17:47:22.999Z,2.72
2023-04-15T17:49:49.709Z,3.45
2023-04-15T17:52:16.410Z,3.50
2023-04-15T17:54:43.106Z,10.27
2023-04-15T17:57:09.834Z,5.15
2023-04-15T17:59:36.636Z,3.17
2023-04-15T18:02:03.535Z,3.28
2023-04-15T18:04:30.580Z,2.72
2023-04-15T18:06:57.449Z,3.15
2023-04-15T18:09:24.182Z,2.75
2023-04-15T18:11:50.900Z,3.17
2023-04-15T18:14:30.550Z,3.88
2023-04-15T18:17:00.734Z,3.00
2023-04-15T18:19:27.478Z,3.08
2023-04-15T18:21:54.422Z,2.58
2023-04-15T18:24:21.192Z,2.53
2023-04-15T18:26:49.215Z,3.17
2023-04-15T18:29:18.837Z,3.08
2023-04-15T18:31:45.595Z,2.22
2023-04-15T18:34:12.855Z,2.90
2023-04-15T18:36:39.554Z,2.83
2023-04-15T18:39:06.510Z,3.33
2023-04-15T18:41:33.461Z,2.47
2023-04-15T18:44:00.121Z,3.72
2023-04-15T18:46:28.211Z,4.20
2023-04-15T18:48:54.942Z,5.05
2023-04-15T18:51:21.781Z,4.28
2023-04-15T18:53:51.611Z,4.07
2023-04-15T18:56:18.341Z,3.88
2023-04-15T18:59:25.864Z,3.90
2023-04-15T19:01:32.516Z,3.45
2023-04-15T19:03:59.655Z,4.05
2023-04-15T19:06:27.227Z,7.82
2023-04-15T19:08:54.497Z,7.60
2023-04-15T19:11:21.882Z,5.10
2023-04-15T19:13:48.645Z,3.17
2023-04-15T19:16:15.469Z,4.18
2023-04-15T19:18:42.980Z,2.90
2023-04-15T19:21:11.289Z,3.28
2023-04-15T19:23:38.727Z,4.30
2023-04-15T19:26:08.234Z,3.45
2023-04-15T19:28:35.207Z,4.07
2023-04-15T19:31:01.942Z,4.10
2023-04-15T19:33:31.361Z,3.42
2023-04-15T19:36:02.735Z,3.63
2023-04-15T19:40:59.286Z,3.85
2023-04-15T19:43:26.482Z,4.18
2023-04-15T19:45:54.674Z,4.18
2023-04-15T19:48:22.863Z,3.50
2023-04-15T19:50:49.537Z,4.53
2023-04-15T19:53:16.284Z,3.33
2023-04-15T19:55:44.513Z,3.65
2023-04-15T19:58:11.392Z,3.33
2023-04-15T20:00:40.672Z,2.65
2023-04-15T20:03:07.809Z,26.85
2023-04-15T20:05:34.713Z,14.20
2023-04-15T20:08:01.814Z,6.57
2023-04-15T20:10:29.752Z,4.07
2023-04-15T20:12:56.431Z,3.30
2023-04-15T20:15:24.085Z,3.30
2023-04-15T20:17:51.207Z,3.60
2023-04-15T20:20:18.247Z,3.80
2023-04-15T20:22:45.404Z,3.95
2023-04-15T20:25:12.224Z,4.07
2023-04-15T20:27:38.988Z,3.95
2023-04-15T20:30:06.500Z,3.13
2023-04-15T20:32:35.926Z,3.33
2023-04-15T20:35:04.504Z,3.47
2023-04-15T20:37:33.394Z,2.78
2023-04-15T20:40:01.458Z,3.20
2023-04-15T20:42:28.659Z,3.50
2023-04-15T20:44:55.689Z,9.88
2023-04-15T20:47:22.612Z,3.53
2023-04-15T20:49:49.590Z,3.85
2023-04-15T20:52:19.215Z,3.85
2023-04-15T20:54:47.084Z,3.08
2023-04-15T20:57:13.963Z,3.40
2023-04-15T20:59:40.833Z,3.65
2023-04-15T21:02:09.052Z,3.45
2023-04-15T21:04:37.952Z,3.75
2023-04-15T21:07:04.883Z,10.65
2023-04-15T21:09:33.791Z,5.25
2023-04-15T21:12:02.356Z,4.03
2023-04-15T21:14:29.819Z,3.00
2023-04-15T21:16:57.653Z,2.92
2023-04-15T21:19:24.456Z,3.45
2023-04-15T21:21:51.190Z,2.75
2023-04-15T21:24:17.821Z,3.10
2023-04-15T21:26:44.538Z,2.72
2023-04-15T21:29:12.006Z,3.25
2023-04-15T21:31:39.130Z,3.55
2023-04-15T21:34:06.087Z,3.35
2023-04-15T21:36:34.024Z,3.63
2023-04-15T21:39:01.114Z,3.25
2023-04-15T21:41:27.917Z,2.60
2023-04-15T21:43:57.164Z,3.03
2023-04-15T21:46:33.264Z,3.70
2023-04-15T21:49:06.873Z,2.92
2023-04-15T21:51:36.814Z,19.75
2023-04-15T21:54:05.955Z,4.35
2023-04-15T21:56:33.124Z,3.50
2023-04-15T21:58:59.836Z,3.50
2023-04-15T22:01:26.953Z,3.03
2023-04-15T22:03:53.843Z,3.53
2023-04-15T22:06:33.996Z,7.47
2023-04-15T22:09:00.684Z,8.02
2023-04-15T22:11:30.713Z,4.50
2023-04-15T22:13:58.802Z,4.53
2023-04-15T22:16:26.856Z,4.20
2023-04-15T22:18:55.706Z,3.03
2023-04-15T22:21:22.821Z,3.72
2023-04-15T22:24:38.076Z,4.15
2023-04-15T22:26:44.992Z,4.32
2023-04-15T22:29:11.686Z,3.55
2023-04-15T22:31:38.430Z,4.28
2023-04-15T22:34:05.283Z,3.95
2023-04-15T22:36:31.990Z,4.03
2023-04-15T22:38:58.725Z,4.32
2023-04-15T22:41:25.508Z,4.82
2023-04-15T22:44:02.605Z,4.13
2023-04-15T22:46:29.359Z,3.97
2023-04-15T22:48:56.188Z,4.45
2023-04-15T22:51:28.289Z,4.50
2023-04-15T22:53:56.357Z,4.13
2023-04-15T22:56:23.678Z,4.35
2023-04-15T22:58:50.858Z,5.00
2023-04-15T23:01:18.378Z,4.65
2023-04-15T23:03:56.458Z,10.13
2023-04-15T23:06:25.527Z,4.53
2023-04-15T23:08:52.668Z,5.68
2023-04-15T23:11:19.509Z,4.07
2023-04-15T23:13:46.119Z,4.95
2023-04-15T23:16:12.873Z,4.50
2023-04-15T23:18:39.555Z,4.35
2023-04-15T23:21:06.288Z,7.00
2023-04-15T23:23:33.055Z,5.97
2023-04-15T23:26:01.340Z,4.22
2023-04-15T23:28:28.113Z,5.20
2023-04-15T23:30:54.900Z,5.18
2023-04-15T23:33:21.683Z,4.13
2023-04-15T23:35:48.415Z,5.40
2023-04-15T23:38:15.106Z,6.15
2023-04-15T23:40:41.764Z,5.50
2023-04-15T23:43:08.486Z,7.10
2023-04-15T23:45:35.305Z,6.15
2023-04-15T23:48:02.309Z,7.20
2023-04-15T23:50:29.129Z,6.55
2023-04-15T23:52:55.890Z,7.57
2023-04-15T23:55:22.683Z,6.40
2023-04-15T23:57:49.357Z,7.07
